Day Rural, Kentucky
Current Conditions -  °F | °C
As of 9:15 AM on Monday 24 Nov 2014 (Local Time) from KLNP Reporting Station
Broken Clouds Broken Clouds  
Wind Chill: 59°   Ceiling: 2900
Heat Index: 59°   Visibility: 10mi
Dew Point: 45°   Wind: 29mph
Humidity: 59%   Direction: 210°SSW
Pressure: 29.66"   Gusts: 37mph
Location:  37.1283°N, 82.8498°W
Report Text: KLNP 241415Z AUTO 21025G32KT 10SM BKN029 BKN036 15/07 A2966 RMK AO2
Loading
Personal Weather Stations






























Interactive Weather Map New forecast layout! Learn more

10-Day Weather Forecast

Advertisements
Track Severe Weather on mobile